No particular awareness of the weather is required.    There are no Weather-warnings


Meteo18 Weather Cam more information Meteo18 Weather Cam


Thunder radar more information blitzortung!


Rain radar more information rain snow radar


Visit our other weather sites:

Template documentation
and downloads

And another site



Weather Underground History page Text

Daily Summary for March 25, 2017 Units:  English    Metric   Both
« Previous Day
Next Day »
Daily Weekly Monthly Yearly Custom
  High: Low: Average:
Temperature: TemperatureC °F 6.4 °F 11.1 °F
Dew Point: DewpointC °F 5.2 °F 7.4 °F
Humidity: Humidity % 63 % 78 %
Wind Speed: WindSpeedKMH mph 0.0 mph 8.4 mph
Wind Gust: WindSpeedGustKMH mph - -
Wind:- - East
Pressure: PressurehPa in 1016.1 in -
Precipitation: 0.0 in    
Historical Graphs
 
 
Tabular Data for March 25, 2017
Time Temperature Dew Point Pressure Wind Wind Speed Wind Gust Humidity Rainfall Rate (Hourly)
TemperatureC °F DewpointC °F PressurehPa in Calm     Humidity % HourlyPrecipMM in
00:02 9.3 °F 7.4 °F 1022.6 in NNE 6.4 mph 19.3 mph 88 % 0.0 in
00:07 9.2 °F 7.3 °F 1022.6 in North 19.3 mph 19.3 mph 88 % 0.0 in
00:12 9.2 °F 7.3 °F 1022.2 in NE 1.6 mph 19.3 mph 88 % 0.0 in
00:17 9.2 °F 7.3 °F 1022.2 in NE 16.1 mph 20.9 mph 88 % 0.0 in
00:22 9.2 °F 7.3 °F 1022.2 in NNW 6.4 mph 22.5 mph 88 % 0.0 in
00:32 9.0 °F 7.1 °F 1022.2 in NE 12.9 mph 22.5 mph 88 % 0.0 in
00:37 8.9 °F 7.0 °F 1022.2 in NNE 4.8 mph 22.5 mph 88 % 0.0 in
00:42 8.9 °F 7.0 °F 1022.2 in North 14.5 mph 22.5 mph 88 % 0.0 in
00:52 8.9 °F 7.0 °F 1022.2 in North 8.0 mph 22.5 mph 88 % 0.0 in
00:57 8.8 °F 6.9 °F 1022.2 in NNE 6.4 mph 25.7 mph 88 % 0.0 in
01:02 8.7 °F 6.8 °F 1022.2 in NNE 8.0 mph 25.7 mph 88 % 0.0 in
01:12 8.7 °F 6.8 °F 1022.2 in North 6.4 mph 25.7 mph 88 % 0.0 in
01:17 8.7 °F 6.8 °F 1022.2 in NE 4.8 mph 24.1 mph 88 % 0.0 in
01:22 8.6 °F 6.7 °F 1022.2 in NW 8.0 mph 24.1 mph 88 % 0.0 in
01:27 8.6 °F 6.7 °F 1022.2 in NNE 12.9 mph 24.1 mph 88 % 0.0 in
01:32 8.6 °F 6.7 °F 1022.2 in NNE 12.9 mph 24.1 mph 88 % 0.0 in
01:37 8.6 °F 6.7 °F 1021.9 in North 8.0 mph 22.5 mph 88 % 0.0 in
01:42 8.5 °F 6.8 °F 1021.9 in NNE 19.3 mph 22.5 mph 89 % 0.0 in
01:47 8.5 °F 6.8 °F 1021.9 in NW 12.9 mph 22.5 mph 89 % 0.0 in
01:52 8.5 °F 6.8 °F 1021.9 in NE 9.7 mph 22.5 mph 89 % 0.0 in
01:57 8.4 °F 6.7 °F 1021.9 in NNE 6.4 mph 25.7 mph 89 % 0.0 in
02:02 8.5 °F 6.6 °F 1021.6 in NNE 17.7 mph 25.7 mph 88 % 0.0 in
02:12 8.5 °F 6.6 °F 1021.6 in NNE 14.5 mph 25.7 mph 88 % 0.0 in
02:17 8.4 °F 6.7 °F 1021.6 in NNW 4.8 mph 30.6 mph 89 % 0.0 in
02:22 8.3 °F 6.6 °F 1021.6 in North 3.2 mph 30.6 mph 89 % 0.0 in
02:27 8.2 °F 6.5 °F 1021.6 in North 6.4 mph 19.3 mph 89 % 0.0 in
02:32 8.2 °F 6.7 °F 1021.2 in NE 8.0 mph 19.3 mph 90 % 0.0 in
02:37 8.2 °F 6.7 °F 1021.2 in NNE 16.1 mph 20.9 mph 90 % 0.0 in
02:42 8.1 °F 6.6 °F 1021.2 in NNW 6.4 mph 20.9 mph 90 % 0.0 in
02:52 8.2 °F 6.5 °F 1021.2 in North 6.4 mph 20.9 mph 89 % 0.0 in
02:57 8.1 °F 6.4 °F 1021.2 in NE 11.3 mph 27.4 mph 89 % 0.0 in
03:02 8.0 °F 6.3 °F 1021.2 in North 11.3 mph 27.4 mph 89 % 0.0 in
03:12 7.9 °F 6.4 °F 1020.9 in NW 6.4 mph 27.4 mph 90 % 0.0 in
03:17 7.9 °F 6.4 °F 1020.9 in NE 4.8 mph 24.1 mph 90 % 0.0 in
03:22 7.9 °F 6.4 °F 1020.9 in NNE 16.1 mph 24.1 mph 90 % 0.0 in
03:32 7.7 °F 6.2 °F 1020.5 in Calm   17.7 mph 90 % 0.0 in
03:42 7.7 °F 6.2 °F 1020.5 in NE 19.3 mph 19.3 mph 90 % 0.0 in
03:52 7.8 °F 6.3 °F 1020.5 in ENE 20.9 mph 20.9 mph 90 % 0.0 in
03:57 7.9 °F 6.2 °F 1020.2 in NE 24.1 mph 29.0 mph 89 % 0.0 in
04:02 7.9 °F 6.2 °F 1020.2 in NNE 19.3 mph 29.0 mph 89 % 0.0 in
04:12 7.9 °F 6.2 °F 1020.2 in North 11.3 mph 29.0 mph 89 % 0.0 in
04:17 7.9 °F 6.2 °F 1020.2 in North 6.4 mph 30.6 mph 89 % 0.0 in
04:22 7.8 °F 6.1 °F 1020.5 in NNE 16.1 mph 30.6 mph 89 % 0.0 in
04:27 7.8 °F 6.1 °F 1020.5 in NE 14.5 mph 25.7 mph 89 % 0.0 in
04:32 7.7 °F 6.0 °F 1020.5 in NNE 16.1 mph 25.7 mph 89 % 0.0 in
04:42 7.6 °F 6.1 °F 1020.2 in NE 9.7 mph 27.4 mph 90 % 0.0 in
04:47 7.5 °F 6.0 °F 1020.2 in NNE 8.0 mph 27.4 mph 90 % 0.0 in
04:52 7.4 °F 5.9 °F 1020.2 in NE 9.7 mph 27.4 mph 90 % 0.0 in
04:57 7.4 °F 5.9 °F 1020.2 in NE 8.0 mph 27.4 mph 90 % 0.0 in
05:02 7.3 °F 5.8 °F 1020.2 in ENE 16.1 mph 24.1 mph 90 % 0.0 in
05:12 7.3 °F 5.9 °F 1020.2 in NNE 11.3 mph 16.1 mph 91 % 0.0 in
05:17 7.3 °F 5.8 °F 1020.2 in NNE 20.9 mph 20.9 mph 90 % 0.0 in
05:22 7.3 °F 5.8 °F 1020.2 in NE 1.6 mph 20.9 mph 90 % 0.0 in
05:32 7.2 °F 5.7 °F 1019.9 in North 3.2 mph 20.9 mph 90 % 0.0 in
05:37 7.1 °F 5.7 °F 1019.9 in NNE 6.4 mph 20.9 mph 91 % 0.0 in
05:42 7.0 °F 5.6 °F 1019.9 in NE 9.7 mph 17.7 mph 91 % 0.0 in
05:47 6.9 °F 5.5 °F 1019.9 in Calm   17.7 mph 91 % 0.0 in
05:52 6.9 °F 5.5 °F 1019.9 in NNE 3.2 mph 17.7 mph 91 % 0.0 in
06:02 6.9 °F 5.5 °F 1019.9 in NE 4.8 mph 12.9 mph 91 % 0.0 in
06:12 6.9 °F 5.5 °F 1019.5 in NNE 8.0 mph 17.7 mph 91 % 0.0 in
06:17 6.7 °F 5.3 °F 1019.9 in NNE 8.0 mph 17.7 mph 91 % 0.0 in
06:32 6.4 °F 5.2 °F 1019.5 in NE 3.2 mph 17.7 mph 92 % 0.0 in
06:42 6.6 °F 5.4 °F 1019.5 in NNE 11.3 mph 14.5 mph 92 % 0.0 in
06:47 6.7 °F 5.5 °F 1019.5 in NNE 1.6 mph 14.5 mph 92 % 0.0 in
06:52 6.7 °F 5.3 °F 1019.5 in NNE 8.0 mph 19.3 mph 91 % 0.0 in
07:02 6.6 °F 5.2 °F 1019.2 in NNE 16.1 mph 19.3 mph 91 % 0.0 in
07:12 6.7 °F 5.3 °F 1019.2 in ENE 4.8 mph 22.5 mph 91 % 0.0 in
07:17 6.8 °F 5.4 °F 1019.2 in NE 4.8 mph 22.5 mph 91 % 0.0 in
07:22 6.9 °F 5.5 °F 1019.2 in NNE 11.3 mph 22.5 mph 91 % 0.0 in
07:32 6.9 °F 5.4 °F 1018.8 in NNW 8.0 mph 20.9 mph 90 % 0.0 in
07:42 7.1 °F 5.6 °F 1018.8 in NE 22.5 mph 29.0 mph 90 % 0.0 in
07:47 7.1 °F 5.6 °F 1018.8 in NE 16.1 mph 29.0 mph 90 % 0.0 in
07:57 7.2 °F 5.5 °F 1018.8 in NNE 16.1 mph 29.0 mph 89 % 0.0 in
08:12 7.4 °F 5.7 °F 1018.8 in NE 19.3 mph 29.0 mph 89 % 0.0 in
08:17 7.5 °F 5.8 °F 1019.2 in NNE 16.1 mph 29.0 mph 89 % 0.0 in
08:22 7.6 °F 5.9 °F 1019.2 in NE 20.9 mph 29.0 mph 89 % 0.0 in
08:32 7.8 °F 5.9 °F 1019.2 in NNE 17.7 mph 25.7 mph 88 % 0.0 in
08:42 7.9 °F 5.9 °F 1019.2 in NE 20.9 mph 27.4 mph 87 % 0.0 in
08:47 8.0 °F 6.0 °F 1019.2 in North 14.5 mph 27.4 mph 87 % 0.0 in
08:52 8.2 °F 6.2 °F 1018.8 in NE 12.9 mph 30.6 mph 87 % 0.0 in
09:02 8.4 °F 6.4 °F 1018.8 in NNE 17.7 mph 30.6 mph 87 % 0.0 in
09:12 8.8 °F 6.6 °F 1018.8 in NNE 12.9 mph 27.4 mph 86 % 0.0 in
09:17 8.9 °F 6.5 °F 1018.8 in NE 9.7 mph 27.4 mph 85 % 0.0 in
09:22 9.1 °F 6.7 °F 1018.8 in ENE 11.3 mph 29.0 mph 85 % 0.0 in
09:32 9.2 °F 6.6 °F 1018.8 in NE 19.3 mph 27.4 mph 84 % 0.0 in
09:37 9.3 °F 6.7 °F 1018.8 in ENE 12.9 mph 27.4 mph 84 % 0.0 in
09:42 9.4 °F 6.7 °F 1018.5 in NE 8.0 mph 29.0 mph 83 % 0.0 in
09:52 9.6 °F 6.9 °F 1018.5 in East 16.1 mph 29.0 mph 83 % 0.0 in
09:57 9.8 °F 7.1 °F 1018.5 in NNE 22.5 mph 29.0 mph 83 % 0.0 in
10:02 9.8 °F 6.9 °F 1018.5 in NE 11.3 mph 29.0 mph 82 % 0.0 in
10:12 10.1 °F 7.2 °F 1018.5 in NE 24.1 mph 32.2 mph 82 % 0.0 in
10:17 10.2 °F 7.3 °F 1018.5 in ENE 19.3 mph 32.2 mph 82 % 0.0 in
10:27 10.3 °F 7.4 °F 1017.8 in NNE 20.9 mph 27.4 mph 82 % 0.0 in
10:32 10.3 °F 7.2 °F 1017.8 in NE 12.9 mph 27.4 mph 81 % 0.0 in
10:42 10.6 °F 7.3 °F 1017.8 in NE 14.5 mph 30.6 mph 80 % 0.0 in
10:52 11.1 °F 8.0 °F 1017.8 in NE 19.3 mph 24.1 mph 81 % 0.0 in
10:57 11.1 °F 7.6 °F 1017.8 in NE 19.3 mph 24.1 mph 79 % 0.0 in
11:02 11.1 °F 7.6 °F 1017.5 in North 30.6 mph 30.6 mph 79 % 0.0 in
11:12 11.6 °F 8.1 °F 1017.5 in NNE 19.3 mph 30.6 mph 79 % 0.0 in
11:17 11.6 °F 7.9 °F 1017.5 in NE 12.9 mph 30.6 mph 78 % 0.0 in
11:27 11.8 °F 8.1 °F 1017.5 in NE 11.3 mph 27.4 mph 78 % 0.0 in
11:32 11.9 °F 8.0 °F 1017.2 in NE 17.7 mph 27.4 mph 77 % 0.0 in
11:37 12.0 °F 8.3 °F 1017.2 in ENE 14.5 mph 27.4 mph 78 % 0.0 in
11:42 12.2 °F 8.3 °F 1017.2 in ENE 22.5 mph 30.6 mph 77 % 0.0 in
11:52 12.3 °F 8.2 °F 1017.2 in NE 27.4 mph 35.4 mph 76 % 0.0 in
11:57 12.5 °F 8.4 °F 1017.2 in NE 16.1 mph 35.4 mph 76 % 0.0 in
12:02 12.7 °F 8.4 °F 1017.5 in NE 16.1 mph 32.2 mph 75 % 0.0 in
12:12 12.9 °F 8.4 °F 1017.2 in NNE 16.1 mph 30.6 mph 74 % 0.0 in
12:17 13.0 °F 8.3 °F 1017.2 in ENE 19.3 mph 30.6 mph 73 % 0.0 in
12:22 13.1 °F 8.6 °F 1017.2 in NNE 11.3 mph 29.0 mph 74 % 0.0 in
12:32 13.4 °F 8.9 °F 1017.2 in NE 20.9 mph 29.0 mph 74 % 0.0 in
12:37 13.5 °F 8.8 °F 1016.8 in NNE 9.7 mph 29.0 mph 73 % 0.0 in
12:42 13.7 °F 8.5 °F 1016.8 in North 27.4 mph 29.0 mph 71 % 0.0 in
12:47 13.8 °F 8.6 °F 1016.8 in NE 20.9 mph 29.0 mph 71 % 0.0 in
12:52 14.1 °F 9.1 °F 1016.8 in NE 12.9 mph 32.2 mph 72 % 0.0 in
13:02 14.2 °F 9.0 °F 1016.5 in East 12.9 mph 32.2 mph 71 % 0.0 in
13:12 14.4 °F 9.0 °F 1016.5 in NE 12.9 mph 29.0 mph 70 % 0.0 in
13:17 14.5 °F 9.1 °F 1016.5 in NNE 14.5 mph 27.4 mph 70 % 0.0 in
13:22 14.5 °F 8.4 °F 1016.5 in NE 9.7 mph 27.4 mph 67 % 0.0 in
13:32 14.7 °F 9.1 °F 1016.5 in ENE 19.3 mph 29.0 mph 69 % 0.0 in
13:37 14.8 °F 9.4 °F 1016.8 in ENE 9.7 mph 29.0 mph 70 % 0.0 in
13:42 15.0 °F 9.1 °F 1016.5 in NE 24.1 mph 24.1 mph 68 % 0.0 in
13:47 15.0 °F 9.1 °F 1016.5 in NE 17.7 mph 27.4 mph 68 % 0.0 in
13:52 15.2 °F 9.3 °F 1016.5 in NE 12.9 mph 27.4 mph 68 % 0.0 in
14:02 15.3 °F 9.2 °F 1016.5 in NNE 17.7 mph 24.1 mph 67 % 0.0 in
14:22 15.6 °F 9.5 °F 1016.1 in NE 16.1 mph 25.7 mph 67 % 0.0 in
14:32 15.8 °F 9.5 °F 1016.1 in ENE 14.5 mph 24.1 mph 66 % 0.0 in
14:37 15.9 °F 9.6 °F 1016.1 in ENE 17.7 mph 22.5 mph 66 % 0.0 in
14:52 16.2 °F 9.1 °F 1016.1 in NE 8.0 mph 29.0 mph 63 % 0.0 in
14:57 16.2 °F 9.4 °F 1016.1 in ENE 9.7 mph 20.9 mph 64 % 0.0 in
15:02 16.4 °F 9.8 °F 1016.5 in ENE 9.7 mph 20.9 mph 65 % 0.0 in
15:12 16.6 °F 10.0 °F 1016.5 in ENE 4.8 mph 19.3 mph 65 % 0.0 in
15:17 16.5 °F 9.7 °F 1016.5 in SSE 4.8 mph 19.3 mph 64 % 0.0 in
15:22 16.6 °F 9.5 °F 1016.5 in NNE 1.6 mph 17.7 mph 63 % 0.0 in
15:32 16.8 °F 9.7 °F 1016.5 in ENE 3.2 mph 17.7 mph 63 % 0.0 in
15:37 16.8 °F 9.7 °F 1016.5 in East 1.6 mph 8.0 mph 63 % 0.0 in
15:42 16.9 °F 10.3 °F 1016.5 in ENE 3.2 mph 6.4 mph 65 % 0.0 in
15:47 16.8 °F 9.7 °F 1016.1 in ESE 3.2 mph 8.0 mph 63 % 0.0 in
15:52 16.7 °F 9.6 °F 1016.1 in East 1.6 mph 8.0 mph 63 % 0.0 in
15:57 16.7 °F 9.6 °F 1016.1 in East 1.6 mph 8.0 mph 63 % 0.0 in
16:02 16.9 °F 9.8 °F 1016.1 in Calm   8.0 mph 63 % 0.0 in
16:12 17.0 °F 9.9 °F 1016.1 in East 1.6 mph 4.8 mph 63 % 0.0 in
16:17 16.9 °F 10.0 °F 1016.1 in NE 1.6 mph 6.4 mph 64 % 0.0 in
16:22 16.8 °F 9.7 °F 1016.1 in ESE 1.6 mph 6.4 mph 63 % 0.0 in
16:32 16.0 °F 10.1 °F 1016.5 in South 11.3 mph 11.3 mph 68 % 0.0 in
16:47 15.2 °F 9.1 °F 1016.5 in South 9.7 mph 22.5 mph 67 % 0.0 in
16:52 15.0 °F 8.7 °F 1016.5 in SSE 8.0 mph 22.5 mph 66 % 0.0 in
16:57 14.9 °F 8.6 °F 1016.5 in SSW 3.2 mph 20.9 mph 66 % 0.0 in
17:02 14.8 °F 8.7 °F 1016.5 in South 3.2 mph 20.9 mph 67 % 0.0 in
17:12 14.7 °F 8.9 °F 1016.5 in SSE 4.8 mph 16.1 mph 68 % 0.0 in
17:17 14.6 °F 8.8 °F 1016.1 in SSW 3.2 mph 12.9 mph 68 % 0.0 in
17:22 14.6 °F 8.3 °F 1016.1 in SSE 3.2 mph 8.0 mph 66 % 0.0 in
17:32 14.5 °F 8.2 °F 1016.1 in South 1.6 mph 8.0 mph 66 % 0.0 in
17:37 14.4 °F 8.3 °F 1016.1 in WSW 1.6 mph 8.0 mph 67 % 0.0 in
17:42 14.4 °F 7.9 °F 1016.1 in Calm   4.8 mph 65 % 0.0 in
17:47 14.4 °F 7.9 °F 1016.1 in Calm   3.2 mph 65 % 0.0 in
17:52 14.4 °F 7.9 °F 1016.1 in Calm   3.2 mph 65 % 0.0 in
17:57 14.4 °F 8.1 °F 1016.1 in Calm   3.2 mph 66 % 0.0 in
18:02 14.4 °F 8.1 °F 1016.1 in Calm   1.6 mph 66 % 0.0 in
18:12 14.4 °F 8.3 °F 1016.1 in Calm     67 % 0.0 in
18:17 14.3 °F 8.5 °F 1016.1 in Calm     68 % 0.0 in
18:22 14.2 °F 8.6 °F 1016.5 in Calm     69 % 0.0 in
18:32 14.1 °F 8.3 °F 1016.5 in Calm     68 % 0.0 in
18:42 14.0 °F 8.6 °F 1016.5 in Calm     70 % 0.0 in
18:52 13.8 °F 8.8 °F 1016.5 in East 3.2 mph 6.4 mph 72 % 0.0 in
18:57 13.8 °F 8.8 °F 1016.5 in ESE 3.2 mph 6.4 mph 72 % 0.0 in
19:02 13.7 °F 8.7 °F 1016.5 in East 3.2 mph 8.0 mph 72 % 0.0 in
19:07 13.6 °F 8.6 °F 1016.8 in SE 3.2 mph 8.0 mph 72 % 0.0 in
19:12 13.6 °F 8.2 °F 1016.8 in Calm   8.0 mph 70 % 0.0 in
19:17 13.5 °F 8.3 °F 1016.8 in East 3.2 mph 6.4 mph 71 % 0.0 in
19:32 13.4 °F 8.0 °F 1017.2 in Calm   4.8 mph 70 % 0.0 in
19:42 13.2 °F 8.1 °F 1017.2 in Calm   4.8 mph 71 % 0.0 in
19:47 13.2 °F 8.3 °F 1017.2 in ESE 1.6 mph 4.8 mph 72 % 0.0 in
19:52 13.1 °F 8.2 °F 1017.2 in Calm   4.8 mph 72 % 0.0 in
19:57 13.1 °F 7.8 °F 1017.2 in ENE 3.2 mph 4.8 mph 70 % 0.0 in
20:02 13.2 °F 7.4 °F 1017.2 in Calm   4.8 mph 68 % 0.0 in
20:12 13.2 °F 7.2 °F 1016.8 in Calm   6.4 mph 67 % 0.0 in
20:22 13.3 °F 7.1 °F 1017.2 in East 1.6 mph 3.2 mph 66 % 0.0 in
20:32 13.2 °F 7.0 °F 1017.2 in Calm   3.2 mph 66 % 0.0 in
20:37 13.1 °F 6.9 °F 1017.2 in Calm   4.8 mph 66 % 0.0 in
20:42 13.0 °F 7.0 °F 1017.2 in Calm   4.8 mph 67 % 0.0 in
20:47 12.9 °F 7.1 °F 1017.2 in Calm   3.2 mph 68 % 0.0 in
20:52 12.8 °F 7.3 °F 1017.2 in Calm   3.2 mph 69 % 0.0 in
20:57 12.6 °F 7.5 °F 1017.2 in Calm   1.6 mph 71 % 0.0 in
21:02 12.6 °F 7.1 °F 1017.2 in Calm   1.6 mph 69 % 0.0 in
21:12 12.5 °F 7.0 °F 1017.2 in SSE 1.6 mph 3.2 mph 69 % 0.0 in
21:17 12.4 °F 7.1 °F 1017.2 in Calm   3.2 mph 70 % 0.0 in
21:22 12.3 °F 7.4 °F 1017.2 in Calm   1.6 mph 72 % 0.0 in
21:27 12.2 °F 7.1 °F 1017.2 in Calm   1.6 mph 71 % 0.0 in
21:32 12.2 °F 7.1 °F 1017.5 in East 1.6 mph 1.6 mph 71 % 0.0 in
21:37 12.2 °F 6.9 °F 1017.5 in ENE 1.6 mph 3.2 mph 70 % 0.0 in
21:42 12.2 °F 6.7 °F 1017.5 in Calm   3.2 mph 69 % 0.0 in
21:47 12.4 °F 6.9 °F 1017.5 in SE 1.6 mph 3.2 mph 69 % 0.0 in
21:52 12.3 °F 6.6 °F 1017.2 in SE 3.2 mph 4.8 mph 68 % 0.0 in
21:57 12.3 °F 6.8 °F 1017.2 in SSE 1.6 mph 4.8 mph 69 % 0.0 in
22:02 12.2 °F 7.1 °F 1017.2 in South 3.2 mph 4.8 mph 71 % 0.0 in
22:12 12.1 °F 7.4 °F 1017.5 in Calm   3.2 mph 73 % 0.0 in
22:17 11.9 °F 7.4 °F 1017.5 in Calm   3.2 mph 74 % 0.0 in
22:22 11.8 °F 7.3 °F 1017.2 in Calm   3.2 mph 74 % 0.0 in
22:32 11.7 °F 7.4 °F 1017.2 in Calm   1.6 mph 75 % 0.0 in
22:37 11.6 °F 7.3 °F 1017.2 in Calm   1.6 mph 75 % 0.0 in
22:42 11.5 °F 7.2 °F 1017.2 in Calm   1.6 mph 75 % 0.0 in
22:52 11.1 °F 7.2 °F 1017.5 in ENE 1.6 mph 1.6 mph 77 % 0.0 in
22:57 10.9 °F 7.4 °F 1017.5 in Calm   3.2 mph 79 % 0.0 in
23:02 10.9 °F 7.4 °F 1017.5 in Calm   3.2 mph 79 % 0.0 in
23:12 10.9 °F 7.4 °F 1017.5 in Calm   3.2 mph 79 % 0.0 in
23:17 10.9 °F 7.4 °F 1017.5 in Calm   1.6 mph 79 % 0.0 in
23:22 10.8 °F 7.3 °F 1017.8 in Calm   1.6 mph 79 % 0.0 in
23:27 10.6 °F 7.3 °F 1017.5 in Calm   1.6 mph 80 % 0.0 in
23:32 10.5 °F 7.4 °F 1017.5 in Calm   1.6 mph 81 % 0.0 in
23:37 10.4 °F 7.3 °F 1017.5 in Calm     81 % 0.0 in
23:42 10.3 °F 7.4 °F 1017.8 in Calm     82 % 0.0 in
23:52 10.3 °F 7.4 °F 1017.8 in Calm   1.6 mph 82 % 0.0 in
23:57 10.3 °F 7.4 °F 1017.8 in Calm   1.6 mph 82 % 0.0 in
Meteo18
Compliments of Weather Underground - 4 mb

Script developed by  Jim McMurry - jmcmurry@mwt.net Adapted for the template by  Wim van der Kuil - Leuven-Template.eu

You find our weather info also at:

European Weather Network

Weather Underground

Equipment we use:

Weather-station
Davis Vue

Weather-program
Meteobridge

Weather-server
Raspberry PI 2 B+

Provider
1 and 1

Davis Vue

Meteobridge

Raspberry PI 2 B+

1 and 1